Time;durP1;ratioP1;P1;durP2;ratioP2;P2;SDS_P1;SDS_P2;PMS_P1;PMS_P2;Temp;Humidity;BMP_temperature;BMP_pressure;BME280_temperature;BME280_humidity;BME280_pressure;Samples;Min_cycle;Max_cycle;Signal;HPM_P1;HPM_P2
2023/08/26 00:02:21;;;;;;;3.90;3.28;;;;;;;;;;5035461;28;20216;-64
2023/08/26 00:04:48;;;;;;;5.40;3.70;;;;;;;;;;5028905;28;20239;-64
2023/08/26 00:07:15;;;;;;;4.80;3.45;;;;;;;;;;5028844;28;20211;-65
2023/08/26 00:09:42;;;;;;;5.35;3.50;;;;;;;;;;5030736;28;20204;-63
2023/08/26 00:12:09;;;;;;;4.43;3.13;;;;;;;;;;5026597;28;20208;-64
2023/08/26 00:14:36;;;;;;;6.28;3.33;;;;;;;;;;5023828;28;20536;-64
2023/08/26 00:17:04;;;;;;;5.47;3.10;;;;;;;;;;5029744;28;20206;-64
2023/08/26 00:19:32;;;;;;;4.75;3.00;;;;;;;;;;5030926;28;20207;-64
2023/08/26 00:22:00;;;;;;;5.60;3.05;;;;;;;;;;5029142;28;20193;-66
2023/08/26 00:24:27;;;;;;;4.80;2.90;;;;;;;;;;5033828;28;20196;-66
2023/08/26 00:26:55;;;;;;;3.85;2.80;;;;;;;;;;5028738;28;20205;-65
2023/08/26 00:29:22;;;;;;;5.97;2.67;;;;;;;;;;5022025;28;20204;-65
2023/08/26 00:31:49;;;;;;;3.45;3.03;;;;;;;;;;5027394;28;20212;-65
2023/08/26 00:34:16;;;;;;;6.75;2.67;;;;;;;;;;5025767;28;20215;-64
2023/08/26 00:36:44;;;;;;;4.32;2.85;;;;;;;;;;5029672;28;20200;-65
2023/08/26 00:39:11;;;;;;;4.22;2.70;;;;;;;;;;5024664;28;20207;-65
2023/08/26 00:41:39;;;;;;;3.03;2.58;;;;;;;;;;5033154;28;20199;-65
2023/08/26 00:44:06;;;;;;;3.85;2.30;;;;;;;;;;5023476;28;20207;-65
2023/08/26 00:46:33;;;;;;;4.00;2.65;;;;;;;;;;5027506;28;20207;-65
2023/08/26 00:49:01;;;;;;;4.60;2.20;;;;;;;;;;5024750;28;20205;-66
2023/08/26 00:51:28;;;;;;;2.58;2.38;;;;;;;;;;5027598;28;20200;-64
2023/08/26 00:53:57;;;;;;;5.43;2.13;;;;;;;;;;5030502;28;20216;-65
2023/08/26 00:56:24;;;;;;;4.53;2.22;;;;;;;;;;5030555;28;20204;-66
2023/08/26 00:58:53;;;;;;;4.15;1.85;;;;;;;;;;5031887;28;20217;-65
2023/08/26 01:01:21;;;;;;;1.73;1.63;;;;;;;;;;5030066;28;20212;-64
2023/08/26 01:03:48;;;;;;;5.13;2.00;;;;;;;;;;5026689;28;20234;-67
2023/08/26 01:06:15;;;;;;;2.75;1.90;;;;;;;;;;5026371;28;20211;-65
2023/08/26 01:08:42;;;;;;;2.30;2.00;;;;;;;;;;5026237;28;20410;-65
2023/08/26 01:11:24;;;;;;;4.43;1.90;;;;;;;;;;5026654;28;20207;-65
2023/08/26 01:13:55;;;;;;;3.85;2.20;;;;;;;;;;5021547;28;20312;-65
2023/08/26 01:16:24;;;;;;;3.00;2.08;;;;;;;;;;5026493;28;20200;-65
2023/08/26 01:18:51;;;;;;;2.90;2.00;;;;;;;;;;5024256;28;20205;-66
2023/08/26 01:21:19;;;;;;;3.58;1.80;;;;;;;;;;5019424;28;20208;-65
2023/08/26 01:23:48;;;;;;;3.03;1.80;;;;;;;;;;5023461;28;20195;-64
2023/08/26 01:26:15;;;;;;;1.50;1.40;;;;;;;;;;5026270;28;20204;-64
2023/08/26 01:28:42;;;;;;;2.65;1.33;;;;;;;;;;5027204;28;20242;-65
2023/08/26 01:31:11;;;;;;;1.98;1.40;;;;;;;;;;5028432;28;20204;-65
2023/08/26 01:33:41;;;;;;;4.40;1.60;;;;;;;;;;5017249;28;20235;-65
2023/08/26 01:36:12;;;;;;;1.60;1.40;;;;;;;;;;5030331;28;20198;-65
2023/08/26 01:38:41;;;;;;;2.22;1.30;;;;;;;;;;5021004;28;20251;-65
2023/08/26 01:41:10;;;;;;;1.55;1.38;;;;;;;;;;5024465;28;20207;-65
2023/08/26 01:43:38;;;;;;;1.92;1.30;;;;;;;;;;5020139;28;20315;-65
2023/08/26 01:46:05;;;;;;;2.13;1.70;;;;;;;;;;5022775;28;20204;-65
2023/08/26 01:48:32;;;;;;;4.47;1.77;;;;;;;;;;5024290;28;20203;-64
2023/08/26 01:50:59;;;;;;;3.80;1.70;;;;;;;;;;5031452;28;20203;-64
2023/08/26 01:53:26;;;;;;;2.67;1.60;;;;;;;;;;5031075;28;20220;-65
2023/08/26 01:55:53;;;;;;;1.88;1.65;;;;;;;;;;5027232;28;20202;-64
2023/08/26 01:58:22;;;;;;;1.63;1.52;;;;;;;;;;5028060;28;20239;-65
2023/08/26 02:00:49;;;;;;;3.83;1.98;;;;;;;;;;5028529;28;20203;-64
2023/08/26 02:03:16;;;;;;;2.35;1.50;;;;;;;;;;5021447;28;20200;-66
2023/08/26 02:05:43;;;;;;;3.53;1.75;;;;;;;;;;5020782;28;20204;-66
2023/08/26 02:08:10;;;;;;;3.80;1.60;;;;;;;;;;5030868;28;20203;-66
2023/08/26 02:10:37;;;;;;;3.97;1.95;;;;;;;;;;5029455;28;20269;-66
2023/08/26 02:13:05;;;;;;;3.03;1.75;;;;;;;;;;5026561;28;20222;-67
2023/08/26 02:15:35;;;;;;;3.28;1.50;;;;;;;;;;5026050;28;20204;-72
2023/08/26 02:18:03;;;;;;;4.43;1.50;;;;;;;;;;5023561;28;20199;-72
2023/08/26 02:20:30;;;;;;;3.22;1.70;;;;;;;;;;5020085;28;20205;-72
2023/08/26 02:22:58;;;;;;;1.50;1.40;;;;;;;;;;5024651;28;20192;-71
2023/08/26 02:25:25;;;;;;;3.00;1.48;;;;;;;;;;5026201;28;20258;-72
2023/08/26 02:27:52;;;;;;;3.15;1.30;;;;;;;;;;5020033;28;20204;-72
2023/08/26 02:30:19;;;;;;;4.05;1.55;;;;;;;;;;5024359;28;20291;-72
2023/08/26 02:32:47;;;;;;;1.58;1.30;;;;;;;;;;5026363;28;20219;-71
2023/08/26 02:35:15;;;;;;;2.47;1.50;;;;;;;;;;5024461;28;20573;-71
2023/08/26 02:37:42;;;;;;;2.88;1.45;;;;;;;;;;5020243;28;20201;-71
2023/08/26 02:40:09;;;;;;;2.03;1.33;;;;;;;;;;5025246;28;20196;-71
2023/08/26 02:42:36;;;;;;;2.42;1.50;;;;;;;;;;5025914;28;20200;-72
2023/08/26 02:45:04;;;;;;;3.72;1.40;;;;;;;;;;5022123;28;20207;-71
2023/08/26 02:47:31;;;;;;;2.38;1.75;;;;;;;;;;5028606;28;20212;-71
2023/08/26 02:50:00;;;;;;;1.50;1.30;;;;;;;;;;5027471;28;20223;-71
2023/08/26 02:52:27;;;;;;;2.35;1.40;;;;;;;;;;5029624;28;20207;-71
2023/08/26 02:54:54;;;;;;;4.20;1.67;;;;;;;;;;5024967;28;20209;-71
2023/08/26 02:57:21;;;;;;;2.28;1.60;;;;;;;;;;5026910;28;20209;-71
2023/08/26 02:59:49;;;;;;;1.50;1.38;;;;;;;;;;5019150;28;20211;-71
2023/08/26 03:02:16;;;;;;;2.15;1.40;;;;;;;;;;5023528;28;20219;-71
2023/08/26 03:04:43;;;;;;;2.80;1.30;;;;;;;;;;5021675;28;20232;-72
2023/08/26 03:07:12;;;;;;;2.30;1.30;;;;;;;;;;5020731;28;20200;-70
2023/08/26 03:09:39;;;;;;;2.65;1.58;;;;;;;;;;5031793;28;20210;-72
2023/08/26 03:12:07;;;;;;;3.35;1.42;;;;;;;;;;5025976;28;20219;-72
2023/08/26 03:14:34;;;;;;;1.83;1.60;;;;;;;;;;5024662;28;20228;-72
2023/08/26 03:17:01;;;;;;;2.55;1.30;;;;;;;;;;5022399;28;20206;-71
2023/08/26 03:19:28;;;;;;;2.45;1.70;;;;;;;;;;5024058;28;20204;-72
2023/08/26 03:21:56;;;;;;;3.17;1.45;;;;;;;;;;5023298;28;20204;-72
2023/08/26 03:24:24;;;;;;;1.95;1.58;;;;;;;;;;5021832;28;20200;-72
2023/08/26 03:26:51;;;;;;;3.22;1.45;;;;;;;;;;5024616;28;20205;-72
2023/08/26 03:29:18;;;;;;;1.75;1.60;;;;;;;;;;5025720;28;20203;-72
2023/08/26 03:31:46;;;;;;;2.00;1.20;;;;;;;;;;5023520;28;20214;-72
2023/08/26 03:34:13;;;;;;;2.28;1.33;;;;;;;;;;5024519;28;20227;-72
2023/08/26 03:36:40;;;;;;;2.97;1.40;;;;;;;;;;5029574;28;20204;-73
2023/08/26 03:39:07;;;;;;;2.78;1.52;;;;;;;;;;5023302;28;20224;-72
2023/08/26 03:41:35;;;;;;;2.85;1.27;;;;;;;;;;5025689;28;20208;-71
2023/08/26 03:44:04;;;;;;;3.10;1.42;;;;;;;;;;5023215;28;20196;-72
2023/08/26 03:46:31;;;;;;;2.85;1.40;;;;;;;;;;5025407;28;20212;-72
2023/08/26 03:48:58;;;;;;;4.53;1.33;;;;;;;;;;5022835;28;20200;-71
2023/08/26 03:51:25;;;;;;;2.78;1.20;;;;;;;;;;5018314;28;20200;-72
2023/08/26 03:53:52;;;;;;;3.30;1.48;;;;;;;;;;5030142;28;20228;-72
2023/08/26 03:56:19;;;;;;;5.38;1.67;;;;;;;;;;5025586;28;20272;-72
2023/08/26 03:58:49;;;;;;;4.05;1.83;;;;;;;;;;5021593;28;20201;-72
2023/08/26 04:01:16;;;;;;;2.15;1.27;;;;;;;;;;5022492;28;20216;-72
2023/08/26 04:03:43;;;;;;;1.25;1.15;;;;;;;;;;5023127;28;20239;-72
2023/08/26 04:06:15;;;;;;;1.95;1.50;;;;;;;;;;5023658;28;20209;-72
2023/08/26 04:08:42;;;;;;;2.60;1.25;;;;;;;;;;5023652;28;20224;-71
2023/08/26 04:11:10;;;;;;;1.58;1.02;;;;;;;;;;5026660;28;20199;-72
2023/08/26 04:13:37;;;;;;;2.17;1.42;;;;;;;;;;5022939;28;20221;-71
2023/08/26 04:16:06;;;;;;;2.47;1.30;;;;;;;;;;5021781;28;20212;-71
2023/08/26 04:18:33;;;;;;;1.63;1.40;;;;;;;;;;5027585;28;20202;-72
2023/08/26 04:21:00;;;;;;;2.50;1.45;;;;;;;;;;5029394;28;20207;-71
2023/08/26 04:23:27;;;;;;;1.95;1.25;;;;;;;;;;5023310;28;20207;-72
2023/08/26 04:26:00;;;;;;;4.50;1.67;;;;;;;;;;5024731;28;20204;-72
2023/08/26 04:28:28;;;;;;;4.55;1.35;;;;;;;;;;5025166;28;20209;-72
2023/08/26 04:30:56;;;;;;;4.25;1.52;;;;;;;;;;5029437;28;20263;-72
2023/08/26 04:33:24;;;;;;;2.15;1.23;;;;;;;;;;5030839;28;20222;-72
2023/08/26 04:35:51;;;;;;;2.10;1.30;;;;;;;;;;5031528;28;20196;-72
2023/08/26 04:38:18;;;;;;;3.75;1.25;;;;;;;;;;5028950;28;20204;-72
2023/08/26 04:40:46;;;;;;;2.00;1.10;;;;;;;;;;5022998;28;20205;-72
2023/08/26 04:43:13;;;;;;;3.92;1.20;;;;;;;;;;5025910;28;20204;-72
2023/08/26 04:45:40;;;;;;;1.63;1.20;;;;;;;;;;5027575;28;20215;-72
2023/08/26 04:48:08;;;;;;;3.40;1.48;;;;;;;;;;5027976;28;20205;-70
2023/08/26 04:50:37;;;;;;;2.10;1.45;;;;;;;;;;5032242;28;20235;-72
2023/08/26 04:53:08;;;;;;;2.13;1.20;;;;;;;;;;5023212;28;20305;-72
2023/08/26 04:55:36;;;;;;;3.13;1.98;;;;;;;;;;5032928;28;20287;-71
2023/08/26 04:58:03;;;;;;;4.47;1.40;;;;;;;;;;5027748;28;20200;-72
2023/08/26 05:00:31;;;;;;;3.78;1.60;;;;;;;;;;5027859;28;20204;-71
2023/08/26 05:02:58;;;;;;;1.73;1.50;;;;;;;;;;5021220;28;20201;-71
2023/08/26 05:05:25;;;;;;;2.28;1.60;;;;;;;;;;5024693;28;20239;-73
2023/08/26 05:07:55;;;;;;;1.75;1.33;;;;;;;;;;5026287;28;20208;-73
2023/08/26 05:10:23;;;;;;;2.05;1.60;;;;;;;;;;5017724;28;20214;-72
2023/08/26 05:12:50;;;;;;;1.85;1.42;;;;;;;;;;5019553;28;20236;-72
2023/08/26 05:15:17;;;;;;;1.55;1.42;;;;;;;;;;5028516;28;20229;-72
2023/08/26 05:17:44;;;;;;;2.28;1.50;;;;;;;;;;5025515;28;20200;-73
2023/08/26 05:20:12;;;;;;;2.13;1.27;;;;;;;;;;5029075;28;20227;-72
2023/08/26 05:22:39;;;;;;;1.70;1.40;;;;;;;;;;5023233;28;20204;-72
2023/08/26 05:25:08;;;;;;;1.42;1.25;;;;;;;;;;5020197;28;20200;-72
2023/08/26 05:27:35;;;;;;;2.55;1.38;;;;;;;;;;5021439;28;20200;-72
2023/08/26 05:30:03;;;;;;;2.85;1.40;;;;;;;;;;5025834;28;20217;-72
2023/08/26 05:32:30;;;;;;;1.77;1.40;;;;;;;;;;5017170;28;20203;-72
2023/08/26 05:34:58;;;;;;;3.35;1.48;;;;;;;;;;5021446;28;20219;-71
2023/08/26 05:37:25;;;;;;;1.77;1.38;;;;;;;;;;5027761;28;20322;-71
2023/08/26 05:39:52;;;;;;;3.67;1.45;;;;;;;;;;5017551;28;20212;-72
2023/08/26 05:42:20;;;;;;;2.28;1.40;;;;;;;;;;5027814;28;20227;-72
2023/08/26 05:44:47;;;;;;;2.63;1.30;;;;;;;;;;5024029;28;20201;-67
2023/08/26 05:47:14;;;;;;;1.95;1.50;;;;;;;;;;5023936;28;20205;-66
2023/08/26 05:49:41;;;;;;;2.38;1.55;;;;;;;;;;5029178;28;20200;-66
2023/08/26 05:52:09;;;;;;;2.63;1.48;;;;;;;;;;5013442;28;20216;-67
2023/08/26 05:54:36;;;;;;;3.40;1.52;;;;;;;;;;5026094;28;20220;-66
2023/08/26 05:57:03;;;;;;;2.25;1.55;;;;;;;;;;5024893;28;20216;-66
2023/08/26 05:59:31;;;;;;;2.28;1.77;;;;;;;;;;5024545;28;20212;-66
2023/08/26 06:01:58;;;;;;;2.05;1.52;;;;;;;;;;5028885;28;20208;-66
2023/08/26 06:04:27;;;;;;;4.22;1.67;;;;;;;;;;5022065;28;20224;-66
2023/08/26 06:06:54;;;;;;;2.15;1.40;;;;;;;;;;5025346;28;20291;-66
2023/08/26 06:09:22;;;;;;;2.83;1.92;;;;;;;;;;5027455;28;20196;-66
2023/08/26 06:11:49;;;;;;;3.78;1.80;;;;;;;;;;5027582;28;20204;-66
2023/08/26 06:14:16;;;;;;;2.55;1.50;;;;;;;;;;5030827;28;20238;-66
2023/08/26 06:16:47;;;;;;;1.65;1.38;;;;;;;;;;5027043;28;20204;-67
2023/08/26 06:19:14;;;;;;;2.88;1.70;;;;;;;;;;5030125;28;20215;-66
2023/08/26 06:21:45;;;;;;;3.55;1.70;;;;;;;;;;5030166;28;20210;-67
2023/08/26 06:24:16;;;;;;;2.05;1.40;;;;;;;;;;5028822;28;20209;-66
2023/08/26 06:26:46;;;;;;;2.75;1.40;;;;;;;;;;5025986;28;20212;-66
2023/08/26 06:29:14;;;;;;;3.10;1.63;;;;;;;;;;5024990;28;20214;-66
2023/08/26 06:31:42;;;;;;;3.45;1.50;;;;;;;;;;5030068;28;20200;-66
2023/08/26 06:34:10;;;;;;;3.22;1.73;;;;;;;;;;5029333;28;20212;-66
2023/08/26 06:36:38;;;;;;;2.33;1.60;;;;;;;;;;5029596;28;20212;-66
2023/08/26 06:39:05;;;;;;;6.15;1.80;;;;;;;;;;5026772;28;20389;-66
2023/08/26 06:41:33;;;;;;;3.22;1.85;;;;;;;;;;5027432;28;20196;-66
2023/08/26 06:44:00;;;;;;;2.35;1.63;;;;;;;;;;5029360;28;20204;-65
2023/08/26 06:46:27;;;;;;;1.50;1.40;;;;;;;;;;5028450;28;20204;-67
2023/08/26 06:48:54;;;;;;;2.67;1.40;;;;;;;;;;5027169;28;20207;-66
2023/08/26 06:51:22;;;;;;;2.88;1.70;;;;;;;;;;5029731;28;20204;-67
2023/08/26 06:53:50;;;;;;;2.90;1.70;;;;;;;;;;5027257;28;20221;-66
2023/08/26 06:56:17;;;;;;;4.80;1.50;;;;;;;;;;5025773;28;20208;-67
2023/08/26 06:58:46;;;;;;;3.15;1.70;;;;;;;;;;5027906;28;20210;-66
2023/08/26 07:01:13;;;;;;;1.60;1.50;;;;;;;;;;5028993;28;20211;-66
2023/08/26 07:03:41;;;;;;;2.53;1.42;;;;;;;;;;5027898;28;20435;-66
2023/08/26 07:06:08;;;;;;;2.78;1.60;;;;;;;;;;5025816;28;20210;-65
2023/08/26 07:08:43;;;;;;;1.55;1.20;;;;;;;;;;5027312;28;20206;-65
2023/08/26 07:11:10;;;;;;;5.47;1.30;;;;;;;;;;5028008;28;20200;-65
2023/08/26 07:13:37;;;;;;;3.25;1.35;;;;;;;;;;5027616;28;20288;-66
2023/08/26 07:16:04;;;;;;;4.63;1.65;;;;;;;;;;5028623;28;20227;-65
2023/08/26 07:18:32;;;;;;;5.47;1.50;;;;;;;;;;5033330;28;20204;-65
2023/08/26 07:20:59;;;;;;;6.15;1.50;;;;;;;;;;5028208;28;20199;-66
2023/08/26 07:23:26;;;;;;;2.42;1.30;;;;;;;;;;5028030;28;20218;-65
2023/08/26 07:25:54;;;;;;;2.50;1.33;;;;;;;;;;5028542;28;20215;-64
2023/08/26 07:28:22;;;;;;;2.67;1.30;;;;;;;;;;5029760;28;20215;-65
2023/08/26 07:30:49;;;;;;;2.25;1.50;;;;;;;;;;5027803;28;20206;-65
2023/08/26 07:33:16;;;;;;;5.50;1.77;;;;;;;;;;5026250;28;20267;-65
2023/08/26 07:35:43;;;;;;;2.53;1.55;;;;;;;;;;5028276;28;20223;-65
2023/08/26 07:38:10;;;;;;;2.35;1.60;;;;;;;;;;5028109;28;20211;-64
2023/08/26 07:40:37;;;;;;;1.92;1.50;;;;;;;;;;5028461;28;20196;-65
2023/08/26 07:43:06;;;;;;;2.45;1.73;;;;;;;;;;5027797;28;20207;-65
2023/08/26 07:45:36;;;;;;;3.28;1.67;;;;;;;;;;5026970;28;20196;-65
2023/08/26 07:48:04;;;;;;;2.38;1.63;;;;;;;;;;5026009;28;20224;-65
2023/08/26 07:50:31;;;;;;;2.58;1.50;;;;;;;;;;5027493;28;20196;-65
2023/08/26 07:52:58;;;;;;;1.55;1.45;;;;;;;;;;5028133;28;20214;-65
2023/08/26 07:55:25;;;;;;;3.13;1.60;;;;;;;;;;5029851;28;20223;-64
2023/08/26 07:57:52;;;;;;;2.72;1.52;;;;;;;;;;5027398;28;20212;-64
2023/08/26 08:00:21;;;;;;;2.35;1.35;;;;;;;;;;5027387;28;20215;-64
2023/08/26 08:02:48;;;;;;;3.47;1.63;;;;;;;;;;5031828;28;20207;-65
2023/08/26 08:05:15;;;;;;;3.83;1.52;;;;;;;;;;5031622;28;20398;-69
2023/08/26 08:07:42;;;;;;;1.60;1.40;;;;;;;;;;5024617;28;20212;-70
2023/08/26 08:10:09;;;;;;;4.13;1.50;;;;;;;;;;5027483;28;20213;-70
2023/08/26 08:12:37;;;;;;;2.55;1.50;;;;;;;;;;5025674;28;20200;-70
2023/08/26 08:15:04;;;;;;;2.58;1.45;;;;;;;;;;5030561;28;20315;-70
2023/08/26 08:17:33;;;;;;;2.55;1.50;;;;;;;;;;5027908;28;20204;-70
2023/08/26 08:20:00;;;;;;;2.38;1.50;;;;;;;;;;5028233;28;20204;-70
2023/08/26 08:22:35;;;;;;;2.67;1.48;;;;;;;;;;5030342;28;20207;-71
2023/08/26 08:25:02;;;;;;;3.08;1.67;;;;;;;;;;5028303;28;20199;-70
2023/08/26 08:27:29;;;;;;;2.30;1.73;;;;;;;;;;5034109;28;20231;-70
2023/08/26 08:29:57;;;;;;;3.28;1.42;;;;;;;;;;5031570;28;20196;-70
2023/08/26 08:32:24;;;;;;;2.25;1.65;;;;;;;;;;5030428;28;20204;-70
2023/08/26 08:34:53;;;;;;;2.40;1.40;;;;;;;;;;5029956;28;20243;-69
2023/08/26 08:37:20;;;;;;;3.15;1.38;;;;;;;;;;5030498;28;20218;-70
2023/08/26 08:39:48;;;;;;;3.00;1.50;;;;;;;;;;5027613;28;20203;-71
2023/08/26 08:42:16;;;;;;;2.78;1.48;;;;;;;;;;5030790;28;20218;-69
2023/08/26 08:44:44;;;;;;;1.92;1.55;;;;;;;;;;5031159;28;20211;-69
2023/08/26 08:47:11;;;;;;;5.40;1.75;;;;;;;;;;5027528;28;20211;-69
2023/08/26 08:49:39;;;;;;;1.92;1.40;;;;;;;;;;5031882;28;20208;-70
2023/08/26 08:52:07;;;;;;;4.38;1.85;;;;;;;;;;5027728;28;20231;-70
2023/08/26 08:54:36;;;;;;;2.97;1.38;;;;;;;;;;5026970;28;20291;-72
2023/08/26 08:57:04;;;;;;;1.85;1.20;;;;;;;;;;5030571;28;20215;-71
2023/08/26 08:59:32;;;;;;;1.83;1.50;;;;;;;;;;5030140;28;20231;-71
2023/08/26 09:01:59;;;;;;;6.22;2.10;;;;;;;;;;5028504;28;20227;-71
2023/08/26 09:04:28;;;;;;;2.80;1.60;;;;;;;;;;5029826;28;20247;-71
2023/08/26 09:06:55;;;;;;;3.92;1.70;;;;;;;;;;5029438;28;20212;-70
2023/08/26 09:09:23;;;;;;;2.67;1.40;;;;;;;;;;5028352;28;20207;-71
2023/08/26 09:11:51;;;;;;;5.53;1.85;;;;;;;;;;5027316;28;20262;-70
2023/08/26 09:14:18;;;;;;;2.83;1.35;;;;;;;;;;5026032;28;20208;-75
2023/08/26 09:16:46;;;;;;;2.30;1.55;;;;;;;;;;5021877;28;20231;-70
2023/08/26 09:19:13;;;;;;;3.10;1.63;;;;;;;;;;5023821;28;20211;-71
2023/08/26 09:21:42;;;;;;;3.20;1.33;;;;;;;;;;5019597;28;20205;-70
2023/08/26 09:24:12;;;;;;;3.38;1.33;;;;;;;;;;5020996;28;20205;-70
2023/08/26 09:26:41;;;;;;;11.02;2.17;;;;;;;;;;5023763;28;20204;-70
2023/08/26 09:29:13;;;;;;;3.47;1.65;;;;;;;;;;5026188;28;20300;-71
2023/08/26 09:31:47;;;;;;;1.83;1.60;;;;;;;;;;5032553;28;20204;-68
2023/08/26 09:34:14;;;;;;;2.60;1.42;;;;;;;;;;5028952;28;20264;-69
2023/08/26 09:36:41;;;;;;;5.88;1.90;;;;;;;;;;5028998;28;20262;-70
2023/08/26 09:39:16;;;;;;;6.47;1.85;;;;;;;;;;5015009;28;20209;-70
2023/08/26 09:41:45;;;;;;;3.15;1.27;;;;;;;;;;5024049;28;20218;-69
2023/08/26 09:44:13;;;;;;;6.68;2.00;;;;;;;;;;5014761;28;20208;-70
2023/08/26 09:46:40;;;;;;;8.70;2.00;;;;;;;;;;5014742;28;20201;-70
2023/08/26 09:49:07;;;;;;;3.42;1.60;;;;;;;;;;5015332;28;20219;-71
2023/08/26 09:51:34;;;;;;;4.70;1.58;;;;;;;;;;5027704;28;20227;-70
2023/08/26 09:54:01;;;;;;;3.40;1.65;;;;;;;;;;5016793;28;20299;-70
2023/08/26 09:56:29;;;;;;;3.72;1.15;;;;;;;;;;5022075;28;20228;-70
2023/08/26 09:58:57;;;;;;;1.65;1.30;;;;;;;;;;5026559;28;20207;-69
2023/08/26 10:01:25;;;;;;;2.45;1.30;;;;;;;;;;5022284;28;20219;-71
2023/08/26 10:03:54;;;;;;;1.45;1.30;;;;;;;;;;5018053;28;20231;-69
2023/08/26 10:06:24;;;;;;;4.03;1.52;;;;;;;;;;5016489;28;20208;-68
2023/08/26 10:08:55;;;;;;;2.05;1.25;;;;;;;;;;5028415;28;20255;-68
2023/08/26 10:11:23;;;;;;;2.58;1.40;;;;;;;;;;5018369;28;20209;-70
2023/08/26 10:13:52;;;;;;;2.30;1.35;;;;;;;;;;5020783;28;20208;-69
2023/08/26 10:16:23;;;;;;;3.20;1.30;;;;;;;;;;5012890;28;20224;-70
2023/08/26 10:18:52;;;;;;;3.55;1.40;;;;;;;;;;5024000;28;20239;-69
2023/08/26 10:21:20;;;;;;;2.92;1.40;;;;;;;;;;5015929;28;20213;-68
2023/08/26 10:23:48;;;;;;;3.05;1.30;;;;;;;;;;5024076;28;20223;-69
2023/08/26 10:26:15;;;;;;;1.80;1.30;;;;;;;;;;5027216;28;20284;-70
2023/08/26 10:28:42;;;;;;;2.78;1.38;;;;;;;;;;5020425;28;20215;-70
2023/08/26 10:31:10;;;;;;;3.00;1.50;;;;;;;;;;5025473;28;20204;-69
2023/08/26 10:33:56;;;;;;;4.78;1.25;;;;;;;;;;5014324;28;20209;-69
2023/08/26 10:36:24;;;;;;;1.27;1.15;;;;;;;;;;5020398;28;20266;-70
2023/08/26 10:38:56;;;;;;;1.55;1.20;;;;;;;;;;5033657;28;20204;-68
2023/08/26 10:41:23;;;;;;;2.92;1.30;;;;;;;;;;5022825;28;20204;-68
2023/08/26 10:43:54;;;;;;;2.92;1.45;;;;;;;;;;5029660;28;20299;-68
2023/08/26 10:46:36;;;;;;;4.35;1.48;;;;;;;;;;5024186;28;20210;-67
2023/08/26 10:49:04;;;;;;;1.40;1.20;;;;;;;;;;5016132;28;20208;-68
2023/08/26 10:51:33;;;;;;;4.00;1.20;;;;;;;;;;5022540;28;20204;-69
2023/08/26 10:54:04;;;;;;;1.88;1.20;;;;;;;;;;5019190;28;20271;-68
2023/08/26 10:56:33;;;;;;;6.45;1.45;;;;;;;;;;5021712;28;20224;-68
2023/08/26 10:59:05;;;;;;;3.47;1.38;;;;;;;;;;5018108;28;20201;-68
2023/08/26 11:01:35;;;;;;;2.25;1.30;;;;;;;;;;5019809;28;20223;-68
2023/08/26 11:04:03;;;;;;;2.38;1.15;;;;;;;;;;5024096;28;20237;-67
2023/08/26 11:06:37;;;;;;;3.67;1.30;;;;;;;;;;5024258;28;20201;-68
2023/08/26 11:09:05;;;;;;;2.75;1.08;;;;;;;;;;5018454;28;20205;-68
2023/08/26 11:11:33;;;;;;;2.58;1.10;;;;;;;;;;5018711;28;20205;-67
2023/08/26 11:14:00;;;;;;;3.60;1.38;;;;;;;;;;5018037;28;20214;-68
2023/08/26 11:16:28;;;;;;;2.05;1.40;;;;;;;;;;5022047;28;20227;-67
2023/08/26 11:18:58;;;;;;;1.92;1.38;;;;;;;;;;5017555;28;20220;-68
2023/08/26 11:21:25;;;;;;;3.38;1.50;;;;;;;;;;5011468;28;20208;-67
2023/08/26 11:23:54;;;;;;;1.52;1.17;;;;;;;;;;5022158;28;20302;-68
2023/08/26 11:26:24;;;;;;;2.72;1.25;;;;;;;;;;5024133;28;20299;-68
2023/08/26 11:28:51;;;;;;;2.22;1.20;;;;;;;;;;5027404;28;20209;-68
2023/08/26 11:31:18;;;;;;;3.08;1.60;;;;;;;;;;5024092;28;20209;-67
2023/08/26 11:33:45;;;;;;;3.35;1.30;;;;;;;;;;5032513;28;20211;-67
2023/08/26 11:36:13;;;;;;;3.63;1.17;;;;;;;;;;5028329;28;20235;-67
2023/08/26 11:38:40;;;;;;;1.30;1.20;;;;;;;;;;5030934;28;20223;-67
2023/08/26 11:41:07;;;;;;;1.52;1.15;;;;;;;;;;5024222;28;20233;-66
2023/08/26 11:43:37;;;;;;;2.95;1.50;;;;;;;;;;5027355;28;20208;-67
2023/08/26 11:46:05;;;;;;;1.85;1.23;;;;;;;;;;5030301;28;20212;-67
2023/08/26 11:48:33;;;;;;;4.00;1.38;;;;;;;;;;5029810;28;20212;-69
2023/08/26 11:51:02;;;;;;;2.78;1.20;;;;;;;;;;5029764;28;20219;-68
2023/08/26 11:53:30;;;;;;;4.70;1.40;;;;;;;;;;5030425;28;20208;-68
2023/08/26 11:55:57;;;;;;;4.68;1.55;;;;;;;;;;5029643;28;20220;-68
2023/08/26 11:58:25;;;;;;;1.77;1.20;;;;;;;;;;5030348;28;20214;-68
2023/08/26 12:00:54;;;;;;;1.90;1.20;;;;;;;;;;5026793;28;20611;-68
2023/08/26 12:03:21;;;;;;;2.00;1.20;;;;;;;;;;5025838;28;20212;-68
2023/08/26 12:05:52;;;;;;;3.50;1.48;;;;;;;;;;5028463;28;20326;-67
2023/08/26 12:08:20;;;;;;;2.03;1.10;;;;;;;;;;5029177;28;20208;-67
2023/08/26 12:10:47;;;;;;;3.47;1.30;;;;;;;;;;5024085;28;20283;-68
2023/08/26 12:13:15;;;;;;;3.25;1.35;;;;;;;;;;5032030;28;20231;-67
2023/08/26 12:15:42;;;;;;;2.90;1.30;;;;;;;;;;5031867;28;20207;-68
2023/08/26 12:18:11;;;;;;;3.25;1.30;;;;;;;;;;5028164;28;20207;-68
2023/08/26 12:20:40;;;;;;;2.80;1.25;;;;;;;;;;5033204;28;20200;-68
2023/08/26 12:23:08;;;;;;;1.55;1.30;;;;;;;;;;5033407;28;20342;-68
2023/08/26 12:25:36;;;;;;;2.58;1.60;;;;;;;;;;5035602;28;20200;-68
2023/08/26 12:28:10;;;;;;;2.92;1.55;;;;;;;;;;5036215;28;20196;-67
2023/08/26 12:30:37;;;;;;;2.45;1.63;;;;;;;;;;5034385;28;20215;-67
2023/08/26 12:33:06;;;;;;;3.38;1.30;;;;;;;;;;5036796;28;20197;-68
2023/08/26 12:35:34;;;;;;;2.03;1.30;;;;;;;;;;5035229;28;20269;-68
2023/08/26 12:38:02;;;;;;;5.32;1.40;;;;;;;;;;5032191;28;20223;-68
2023/08/26 12:40:30;;;;;;;3.03;1.65;;;;;;;;;;5033550;28;20246;-68
2023/08/26 12:42:57;;;;;;;4.43;1.50;;;;;;;;;;5032716;28;20208;-68
2023/08/26 12:45:25;;;;;;;3.33;1.55;;;;;;;;;;5029868;28;20228;-67
2023/08/26 12:47:52;;;;;;;3.45;1.35;;;;;;;;;;5031452;28;20200;-67
2023/08/26 12:50:19;;;;;;;1.98;1.52;;;;;;;;;;5030753;28;20207;-67
2023/08/26 12:52:48;;;;;;;4.47;1.55;;;;;;;;;;5029784;28;20201;-67
2023/08/26 12:55:15;;;;;;;3.53;1.65;;;;;;;;;;5026392;28;20262;-67
2023/08/26 12:57:42;;;;;;;3.63;1.40;;;;;;;;;;5031120;28;20243;-68
2023/08/26 13:00:10;;;;;;;4.00;1.40;;;;;;;;;;5031792;28;20204;-67
2023/08/26 13:02:37;;;;;;;1.90;1.40;;;;;;;;;;5031905;28;20208;-67
2023/08/26 13:05:04;;;;;;;1.60;1.30;;;;;;;;;;5030571;28;20238;-67
2023/08/26 13:07:32;;;;;;;2.83;1.30;;;;;;;;;;5031728;28;20299;-68
2023/08/26 13:10:00;;;;;;;3.83;1.30;;;;;;;;;;5031200;28;20399;-67
2023/08/26 13:12:27;;;;;;;3.15;1.70;;;;;;;;;;5032205;28;20201;-68
2023/08/26 13:14:54;;;;;;;2.38;1.40;;;;;;;;;;5028788;28;20204;-68
2023/08/26 13:17:22;;;;;;;2.47;1.15;;;;;;;;;;5031879;28;20220;-67
2023/08/26 13:19:49;;;;;;;1.90;1.38;;;;;;;;;;5031428;28;20208;-67
2023/08/26 13:22:16;;;;;;;2.92;1.20;;;;;;;;;;5032459;28;20262;-67
2023/08/26 13:24:43;;;;;;;1.92;1.52;;;;;;;;;;5031103;28;20199;-68
2023/08/26 13:27:12;;;;;;;2.60;1.20;;;;;;;;;;5033887;28;20201;-68
2023/08/26 13:29:39;;;;;;;1.75;1.30;;;;;;;;;;5027943;28;20200;-67
2023/08/26 13:32:06;;;;;;;7.05;1.38;;;;;;;;;;5029846;28;20204;-66
2023/08/26 13:34:33;;;;;;;3.05;1.45;;;;;;;;;;5030193;28;20200;-66
2023/08/26 13:37:00;;;;;;;1.45;0.90;;;;;;;;;;5029705;28;20204;-68
2023/08/26 13:39:27;;;;;;;1.42;1.10;;;;;;;;;;5022635;28;20211;-67
2023/08/26 13:41:56;;;;;;;2.13;1.20;;;;;;;;;;5021354;28;20200;-67
2023/08/26 13:44:25;;;;;;;1.10;1.00;;;;;;;;;;5030095;28;20211;-68
2023/08/26 13:46:52;;;;;;;1.35;1.17;;;;;;;;;;5028444;28;20204;-67
2023/08/26 13:49:19;;;;;;;5.85;1.48;;;;;;;;;;5029055;28;20269;-67
2023/08/26 13:51:46;;;;;;;2.08;1.42;;;;;;;;;;5024363;28;20201;-67
2023/08/26 13:54:14;;;;;;;1.60;1.50;;;;;;;;;;5025450;28;20207;-63
2023/08/26 13:56:41;;;;;;;2.45;1.30;;;;;;;;;;5025835;28;20252;-67
2023/08/26 13:59:08;;;;;;;2.28;1.10;;;;;;;;;;5025509;28;20208;-68
2023/08/26 14:01:36;;;;;;;2.22;1.40;;;;;;;;;;5020971;28;20207;-67
2023/08/26 14:04:04;;;;;;;1.33;1.10;;;;;;;;;;5019664;28;20240;-67
2023/08/26 14:06:31;;;;;;;1.33;1.10;;;;;;;;;;5025641;28;20218;-68
2023/08/26 14:08:58;;;;;;;3.47;1.00;;;;;;;;;;5021221;28;20219;-68
2023/08/26 14:11:27;;;;;;;1.85;1.20;;;;;;;;;;5025995;28;20214;-67
2023/08/26 14:13:54;;;;;;;1.85;1.20;;;;;;;;;;5028263;28;20207;-67
2023/08/26 14:16:21;;;;;;;1.33;1.00;;;;;;;;;;5026006;28;20217;-67
2023/08/26 14:18:49;;;;;;;1.63;1.15;;;;;;;;;;5026660;28;20199;-68
2023/08/26 14:21:16;;;;;;;1.20;1.10;;;;;;;;;;5019725;28;20376;-67
2023/08/26 14:23:44;;;;;;;1.63;1.30;;;;;;;;;;5016868;28;20216;-67
2023/08/26 14:26:11;;;;;;;1.98;1.02;;;;;;;;;;5017979;28;20216;-68
2023/08/26 14:28:38;;;;;;;3.13;1.00;;;;;;;;;;5024216;28;20205;-68
2023/08/26 14:31:05;;;;;;;1.73;1.20;;;;;;;;;;5028965;28;20213;-67
2023/08/26 14:33:32;;;;;;;2.05;1.10;;;;;;;;;;5024006;28;20205;-67
2023/08/26 14:36:02;;;;;;;2.40;1.10;;;;;;;;;;5018190;28;20204;-67
2023/08/26 14:38:30;;;;;;;3.28;1.10;;;;;;;;;;5014089;28;20311;-68
2023/08/26 14:40:57;;;;;;;1.50;1.08;;;;;;;;;;5022591;28;20270;-68
2023/08/26 14:43:25;;;;;;;1.17;0.90;;;;;;;;;;5020795;28;20318;-68
2023/08/26 14:45:52;;;;;;;1.27;1.10;;;;;;;;;;5026658;28;20212;-67
2023/08/26 14:48:21;;;;;;;1.25;1.00;;;;;;;;;;5016009;28;20307;-68